Acme, Wyoming
Current Conditions -  °F | °C
As of 6:53 AM on Tuesday 21 Oct 2014 (Local Time) from KSHR Reporting Station
Clear Clear  
Wind Chill: 38°   Ceiling: Unl
Heat Index: 38°   Visibility: 10mi
Dew Point: 30°   Wind: 0mph
Humidity: 73%   Direction: NA
Pressure: 29.77"   Gusts: NA
Location:  44.8885°N, 107.104°W
Report Text: KSHR 211253Z AUTO 00000KT 10SM CLR 03/M01 A2977 RMK AO2 SLP081 T00331011 TSNO
Loading
Personal Weather Stations






























Interactive Weather Map
Tropical Storm Tracking
New forecast layout! Learn more

10-Day Weather Forecast

Advertisements
Track Severe Weather on mobile